createdAt,value
2019-01-02T00:02:08.273Z,6.27
2019-01-02T00:04:39.610Z,6.23
2019-01-02T00:07:11.726Z,6.17
2019-01-02T00:09:42.912Z,6.77
2019-01-02T00:12:14.589Z,6.23
2019-01-02T00:14:45.720Z,6.40
2019-01-02T00:17:17.374Z,6.90
2019-01-02T00:19:48.544Z,6.70
2019-01-02T00:22:19.967Z,7.17
2019-01-02T00:24:51.721Z,7.57
2019-01-02T00:27:24.733Z,7.50
2019-01-02T00:29:56.425Z,7.17
2019-01-02T00:32:27.808Z,7.07
2019-01-02T00:34:58.901Z,7.43
2019-01-02T00:37:30.305Z,7.60
2019-01-02T00:40:01.498Z,7.33
2019-01-02T00:42:33.248Z,8.23
2019-01-02T00:45:04.353Z,7.40
2019-01-02T00:47:37.332Z,7.90
2019-01-02T00:50:10.724Z,7.80
2019-01-02T00:52:42.905Z,7.00
2019-01-02T00:55:14.228Z,7.93
2019-01-02T00:57:45.524Z,6.70
2019-01-02T01:00:20.196Z,7.13
2019-01-02T01:02:51.851Z,7.53
2019-01-02T01:05:23.293Z,6.77
2019-01-02T01:08:06.724Z,7.47
2019-01-02T01:10:37.852Z,7.37
2019-01-02T01:13:09.102Z,7.17
2019-01-02T01:15:41.632Z,7.97
2019-01-02T01:18:12.929Z,7.63
2019-01-02T01:20:44.219Z,7.40
2019-01-02T01:23:15.569Z,6.80
2019-01-02T01:25:47.310Z,6.37
2019-01-02T01:28:18.877Z,7.47
2019-01-02T01:30:50.111Z,7.87
2019-01-02T01:33:21.837Z,7.37
2019-01-02T01:35:53.953Z,7.63
2019-01-02T01:38:25.219Z,8.30
2019-01-02T01:40:56.678Z,6.80
2019-01-02T01:43:27.991Z,7.23
2019-01-02T01:45:59.049Z,6.37
2019-01-02T01:48:30.918Z,6.33
2019-01-02T01:51:02.090Z,6.30
2019-01-02T01:53:33.580Z,6.20
2019-01-02T01:56:04.629Z,6.40
2019-01-02T01:58:35.982Z,7.00
2019-01-02T02:01:07.670Z,6.60
2019-01-02T02:03:39.079Z,5.70
2019-01-02T02:06:10.227Z,5.10
2019-01-02T02:08:41.933Z,4.87
2019-01-02T02:11:13.332Z,3.10
2019-01-02T02:13:44.675Z,2.80
2019-01-02T02:16:16.094Z,1.83
2019-01-02T02:18:47.299Z,2.47
2019-01-02T02:21:18.350Z,3.10
2019-01-02T02:23:51.091Z,2.60
2019-01-02T02:26:22.197Z,2.53
2019-01-02T02:28:53.995Z,2.57
2019-01-02T02:31:25.625Z,2.90
2019-01-02T02:33:57.608Z,2.70
2019-01-02T02:36:28.881Z,2.37
2019-01-02T02:39:00.400Z,2.30
2019-01-02T02:41:33.672Z,2.50
2019-01-02T02:44:05.407Z,2.40
2019-01-02T02:46:37.202Z,3.00
2019-01-02T02:49:08.661Z,3.33
2019-01-02T02:51:40.169Z,3.93
2019-01-02T02:54:12.190Z,4.10
2019-01-02T02:56:43.956Z,3.80
2019-01-02T02:59:15.809Z,4.50
2019-01-02T03:01:47.410Z,4.20
2019-01-02T03:04:19.536Z,5.07
2019-01-02T03:06:53.006Z,5.50
2019-01-02T03:09:24.992Z,5.57
2019-01-02T03:11:56.104Z,5.40
2019-01-02T03:14:27.476Z,4.77
2019-01-02T03:16:58.814Z,5.37
2019-01-02T03:19:30.681Z,5.90
2019-01-02T03:22:02.224Z,4.80
2019-01-02T03:24:34.083Z,4.70
2019-01-02T03:27:05.602Z,4.60
2019-01-02T03:29:37.194Z,4.60
2019-01-02T03:32:09.065Z,4.77
2019-01-02T03:34:40.760Z,3.93
2019-01-02T03:37:11.930Z,3.00
2019-01-02T03:39:43.218Z,2.67
2019-01-02T03:42:14.500Z,2.30
2019-01-02T03:44:45.802Z,1.90
2019-01-02T03:47:17.034Z,1.87
2019-01-02T03:49:48.566Z,1.97
2019-01-02T03:52:19.700Z,1.77
2019-01-02T03:54:51.080Z,1.83
2019-01-02T03:57:22.324Z,1.90
2019-01-02T03:59:53.490Z,1.90
2019-01-02T04:02:24.591Z,2.00
2019-01-02T04:04:56.486Z,2.00
2019-01-02T04:07:28.636Z,1.90
2019-01-02T04:09:59.988Z,1.93
2019-01-02T04:12:31.148Z,2.00
2019-01-02T04:15:02.588Z,1.73
2019-01-02T04:17:33.729Z,1.90
2019-01-02T04:20:05.480Z,2.00
2019-01-02T04:22:36.624Z,1.70
2019-01-02T04:25:08.285Z,1.70
2019-01-02T04:27:39.400Z,1.87
2019-01-02T04:30:14.144Z,1.60
2019-01-02T04:32:45.644Z,1.60
2019-01-02T04:35:16.866Z,1.53
2019-01-02T04:37:47.946Z,1.50
2019-01-02T04:40:19.191Z,1.40
2019-01-02T04:42:50.279Z,1.63
2019-01-02T04:45:22.018Z,1.40
2019-01-02T04:47:53.163Z,1.60
2019-01-02T04:50:24.719Z,1.60
2019-01-02T04:52:55.804Z,1.70
2019-01-02T04:55:27.124Z,1.77
2019-01-02T04:57:58.266Z,1.50
2019-01-02T05:00:29.984Z,1.50
2019-01-02T05:03:01.128Z,1.60
2019-01-02T05:05:32.517Z,1.40
2019-01-02T05:08:03.614Z,1.50
2019-01-02T05:10:34.907Z,1.63
2019-01-02T05:13:06.066Z,1.50
2019-01-02T05:15:37.905Z,1.63
2019-01-02T05:18:09.089Z,1.70
2019-01-02T05:20:40.602Z,1.67
2019-01-02T05:23:11.744Z,1.70
2019-01-02T05:25:43.063Z,1.90
2019-01-02T05:28:14.140Z,1.50
2019-01-02T05:30:45.586Z,1.50
2019-01-02T05:33:16.962Z,1.63
2019-01-02T05:35:48.686Z,1.70
2019-01-02T05:38:19.757Z,1.70
2019-01-02T05:40:51.054Z,1.80
2019-01-02T05:43:22.184Z,1.50
2019-01-02T05:45:53.576Z,1.60
2019-01-02T05:48:24.641Z,1.53
2019-01-02T05:50:55.952Z,1.60
2019-01-02T05:53:27.032Z,1.80
2019-01-02T05:55:58.449Z,2.00
2019-01-02T05:58:29.870Z,2.00
2019-01-02T06:01:01.256Z,2.10
2019-01-02T06:03:35.202Z,2.53
2019-01-02T06:06:06.606Z,1.90
2019-01-02T06:08:39.726Z,1.97
2019-01-02T06:11:10.880Z,2.00
2019-01-02T06:13:41.975Z,2.00
2019-01-02T06:16:13.324Z,2.00
2019-01-02T06:18:44.430Z,2.10
2019-01-02T06:21:15.723Z,2.23
2019-01-02T06:23:46.821Z,2.27
2019-01-02T06:26:18.211Z,1.97
2019-01-02T06:28:49.633Z,1.97
2019-01-02T06:31:21.117Z,2.60
2019-01-02T06:33:52.445Z,2.23
2019-01-02T06:36:23.814Z,2.27
2019-01-02T06:38:55.266Z,2.07
2019-01-02T06:41:26.804Z,2.00
2019-01-02T06:43:57.971Z,1.83
2019-01-02T06:46:29.298Z,1.77
2019-01-02T06:49:00.366Z,2.50
2019-01-02T06:51:31.784Z,2.20
2019-01-02T06:54:04.395Z,2.17
2019-01-02T06:56:35.711Z,2.30
2019-01-02T06:59:06.811Z,2.10
2019-01-02T07:01:38.224Z,3.13
2019-01-02T07:04:09.355Z,2.00
2019-01-02T07:06:40.683Z,2.07
2019-01-02T07:09:11.791Z,1.97
2019-01-02T07:11:43.013Z,2.37
2019-01-02T07:14:14.123Z,2.50
2019-01-02T07:16:45.483Z,2.73
2019-01-02T07:19:16.551Z,2.40
2019-01-02T07:21:47.695Z,2.70
2019-01-02T07:24:18.782Z,1.90
2019-01-02T07:26:50.006Z,2.33
2019-01-02T07:29:21.240Z,2.63
2019-01-02T07:31:52.848Z,2.20
2019-01-02T07:35:09.854Z,2.40
2019-01-02T07:37:52.490Z,2.30
2019-01-02T07:41:06.647Z,2.10
2019-01-02T07:44:05.632Z,2.30
2019-01-02T07:47:02.936Z,2.80
2019-01-02T07:53:42.774Z,2.40
2019-01-02T07:56:43.394Z,2.20
2019-01-02T07:59:34.907Z,2.33
2019-01-02T08:02:32.380Z,2.40
2019-01-02T08:05:20.100Z,2.70
2019-01-02T08:08:16.787Z,2.20
2019-01-02T08:11:24.267Z,3.00
2019-01-02T08:15:03.029Z,3.80
2019-01-02T08:18:23.747Z,2.20
2019-01-02T08:21:39.140Z,2.33
2019-01-02T08:24:43.040Z,2.57
2019-01-02T08:27:30.277Z,3.53
2019-01-02T08:30:29.082Z,2.27
2019-01-02T08:33:32.992Z,3.13
2019-01-02T08:36:42.954Z,2.83
2019-01-02T08:39:49.535Z,2.63
2019-01-02T08:43:09.822Z,3.20
2019-01-02T08:46:17.598Z,1.93
2019-01-02T08:49:17.754Z,2.40
2019-01-02T08:52:38.997Z,3.70
2019-01-02T08:55:59.243Z,2.20
2019-01-02T08:58:52.620Z,2.73
2019-01-02T09:02:12.696Z,3.90
2019-01-02T09:05:29.071Z,3.30
2019-01-02T09:08:40.595Z,2.53
2019-01-02T09:11:54.706Z,1.90
2019-01-02T09:14:58.460Z,3.60
2019-01-02T09:18:00.306Z,2.90
2019-01-02T09:20:53.430Z,2.50
2019-01-02T09:24:09.072Z,3.30
2019-01-02T09:27:45.523Z,2.60
2019-01-02T09:30:47.470Z,2.20
2019-01-02T09:34:14.889Z,2.07
2019-01-02T09:37:28.765Z,2.33
2019-01-02T09:40:48.895Z,2.20
2019-01-02T09:43:56.838Z,2.37
2019-01-02T09:47:18.667Z,2.30
2019-01-02T09:50:38.885Z,3.13
2019-01-02T09:53:50.212Z,2.23
2019-01-02T09:57:05.298Z,2.43
2019-01-02T10:00:29.777Z,2.13
2019-01-02T10:03:47.859Z,2.27
2019-01-02T10:06:59.361Z,2.53
2019-01-02T10:10:17.670Z,2.70
2019-01-02T10:13:38.068Z,2.80
2019-01-02T10:16:37.532Z,3.10
2019-01-02T10:19:44.413Z,3.30
2019-01-02T10:23:27.185Z,2.73
2019-01-02T10:26:42.458Z,2.70
2019-01-02T10:29:48.486Z,2.50
2019-01-02T10:33:00.803Z,2.50
2019-01-02T10:36:05.986Z,2.60
2019-01-02T10:39:21.486Z,2.63
2019-01-02T10:42:35.943Z,2.47
2019-01-02T10:55:51.148Z,2.67
2019-01-02T10:58:53.120Z,2.30
2019-01-02T11:02:00.897Z,3.00
2019-01-02T11:05:18.825Z,2.43
2019-01-02T11:08:14.196Z,2.03
2019-01-02T11:11:29.691Z,3.07
2019-01-02T11:14:40.975Z,2.43
2019-01-02T11:17:48.346Z,1.97
2019-01-02T11:21:15.766Z,2.00
2019-01-02T11:24:41.948Z,2.27
2019-01-02T11:28:15.144Z,2.57
2019-01-02T11:31:31.799Z,2.80
2019-01-02T11:34:51.715Z,2.97
2019-01-02T11:38:03.207Z,2.20
2019-01-02T11:41:11.861Z,2.63
2019-01-02T11:44:42.039Z,2.87
2019-01-02T11:47:13.812Z,2.90
2019-01-02T11:49:45.384Z,2.60
2019-01-02T11:52:16.540Z,2.90
2019-01-02T11:54:47.660Z,2.77
2019-01-02T11:57:20.128Z,2.57
2019-01-02T11:59:51.323Z,3.20
2019-01-02T12:02:22.838Z,2.57
2019-01-02T12:04:53.975Z,2.53
2019-01-02T12:07:25.161Z,3.33
2019-01-02T12:09:56.385Z,2.40
2019-01-02T12:12:27.783Z,3.00
2019-01-02T12:14:58.976Z,2.70
2019-01-02T12:17:30.400Z,2.43
2019-01-02T12:20:02.246Z,2.97
2019-01-02T12:28:39.810Z,2.90
2019-01-02T12:31:11.115Z,2.73
2019-01-02T12:33:42.712Z,3.17
2019-01-02T12:36:14.246Z,3.10
2019-01-02T12:38:45.520Z,3.10
2019-01-02T12:41:16.836Z,2.90
2019-01-02T12:43:48.224Z,2.73
2019-01-02T12:46:19.515Z,2.60
2019-01-02T12:48:51.479Z,2.63
2019-01-02T12:51:22.748Z,2.70
2019-01-02T12:53:54.031Z,2.40
2019-01-02T12:56:25.341Z,3.40
2019-01-02T12:58:57.127Z,3.27
2019-01-02T13:02:03.194Z,2.63
2019-01-02T13:04:49.104Z,2.30
2019-01-02T13:07:54.017Z,2.70
2019-01-02T13:10:53.838Z,2.87
2019-01-02T13:14:30.486Z,3.20
2019-01-02T13:17:39.549Z,2.87
2019-01-02T13:20:48.271Z,2.63
2019-01-02T13:23:39.054Z,3.00
2019-01-02T13:26:31.009Z,3.03
2019-01-02T13:29:38.076Z,3.10
2019-01-02T13:32:35.761Z,3.50
2019-01-02T13:35:49.091Z,3.67
2019-01-02T13:38:57.014Z,3.30
2019-01-02T13:42:04.571Z,3.00
2019-01-02T13:45:18.620Z,3.30
2019-01-02T13:48:11.067Z,3.30
2019-01-02T13:51:15.665Z,3.47
2019-01-02T13:53:46.942Z,3.30
2019-01-02T13:56:21.246Z,3.00
2019-01-02T13:58:53.774Z,2.57
2019-01-02T14:01:25.063Z,3.10
2019-01-02T14:04:00.019Z,3.17
2019-01-02T14:06:31.242Z,2.40
2019-01-02T14:09:02.840Z,3.07
2019-01-02T14:11:35.791Z,3.00
2019-01-02T14:14:07.555Z,3.30
2019-01-02T14:16:38.784Z,3.43
2019-01-02T14:19:10.366Z,3.67
2019-01-02T14:21:42.165Z,2.97
2019-01-02T14:24:13.459Z,3.37
2019-01-02T14:26:44.763Z,3.20
2019-01-02T14:29:16.153Z,3.27
2019-01-02T14:31:47.382Z,3.50
2019-01-02T14:34:18.960Z,3.90
2019-01-02T14:36:50.153Z,3.30
2019-01-02T14:39:21.502Z,3.40
2019-01-02T14:41:52.661Z,3.40
2019-01-02T14:44:24.251Z,3.90
2019-01-02T14:46:55.874Z,2.83
2019-01-02T14:49:27.305Z,3.00
2019-01-02T14:51:58.569Z,4.20
2019-01-02T14:54:30.765Z,3.67
2019-01-02T14:57:02.090Z,3.10
2019-01-02T14:59:33.620Z,3.63
2019-01-02T15:02:04.814Z,2.97
2019-01-02T15:04:36.284Z,3.43
2019-01-02T15:07:07.696Z,3.60
2019-01-02T15:09:39.319Z,2.67
2019-01-02T15:12:10.763Z,3.30
2019-01-02T15:14:42.374Z,3.00
2019-01-02T15:17:13.632Z,3.50
2019-01-02T15:19:44.898Z,3.53
2019-01-02T15:22:20.829Z,3.43
2019-01-02T15:24:52.379Z,3.60
2019-01-02T15:27:24.576Z,4.23
2019-01-02T15:29:56.113Z,3.40
2019-01-02T15:32:28.464Z,3.00
2019-01-02T15:34:59.998Z,2.47
2019-01-02T15:37:31.773Z,3.90
2019-01-02T15:40:03.222Z,3.33
2019-01-02T15:42:34.479Z,3.03
2019-01-02T15:45:06.699Z,2.90
2019-01-02T15:47:38.146Z,3.63
2019-01-02T15:50:11.076Z,3.13
2019-01-02T15:52:42.192Z,3.10
2019-01-02T15:55:13.683Z,3.60
2019-01-02T15:57:45.020Z,3.30
2019-01-02T16:00:16.579Z,2.97
2019-01-02T16:02:47.725Z,3.47
2019-01-02T16:05:19.380Z,3.20
2019-01-02T16:07:50.714Z,3.40
2019-01-02T16:10:22.057Z,3.67
2019-01-02T16:12:53.391Z,3.30
2019-01-02T16:15:26.088Z,2.90
2019-01-02T16:17:57.289Z,2.53
2019-01-02T16:20:28.509Z,3.27
2019-01-02T16:23:00.024Z,2.70
2019-01-02T16:25:31.634Z,2.67
2019-01-02T16:28:02.958Z,2.90
2019-01-02T16:30:34.502Z,2.80
2019-01-02T16:33:06.029Z,3.43
2019-01-02T16:35:38.583Z,2.97
2019-01-02T16:38:09.894Z,2.90
2019-01-02T16:40:41.621Z,2.63
2019-01-02T16:43:13.153Z,2.47
2019-01-02T16:45:45.011Z,3.03
2019-01-02T16:48:19.128Z,6.50
2019-01-02T16:50:50.785Z,4.10
2019-01-02T16:53:22.787Z,2.97
2019-01-02T16:55:54.511Z,3.40
2019-01-02T16:58:25.983Z,3.30
2019-01-02T17:00:57.908Z,2.60
2019-01-02T17:03:29.278Z,2.90
2019-01-02T17:06:01.275Z,3.13
2019-01-02T17:08:33.129Z,2.73
2019-01-02T17:11:08.437Z,3.10
2019-01-02T17:13:40.430Z,2.90
2019-01-02T17:16:12.043Z,3.30
2019-01-02T17:18:43.334Z,3.10
2019-01-02T17:21:14.981Z,3.15
2019-01-02T17:23:46.522Z,3.97
2019-01-02T17:26:20.307Z,2.90
2019-01-02T17:28:51.771Z,3.07
2019-01-02T17:31:24.107Z,3.33
2019-01-02T17:33:56.310Z,2.80
2019-01-02T17:36:28.341Z,2.67
2019-01-02T17:38:59.904Z,2.87
2019-01-02T17:41:31.571Z,3.47
2019-01-02T17:44:03.807Z,2.90
2019-01-02T17:46:37.008Z,2.50
2019-01-02T17:49:09.913Z,2.57
2019-01-02T17:51:41.837Z,2.70
2019-01-02T17:54:13.354Z,3.00
2019-01-02T17:56:45.062Z,3.50
2019-01-02T17:59:16.758Z,3.00
2019-01-02T18:01:48.577Z,2.40
2019-01-02T18:04:20.560Z,2.73
2019-01-02T18:06:52.374Z,2.40
2019-01-02T18:09:24.053Z,2.80
2019-01-02T18:11:55.814Z,3.27
2019-01-02T18:14:27.529Z,2.27
2019-01-02T18:16:59.326Z,2.93
2019-01-02T18:19:30.806Z,2.70
2019-01-02T18:22:02.820Z,3.40
2019-01-02T18:24:34.553Z,2.70
2019-01-02T18:27:06.260Z,2.87
2019-01-02T18:29:38.072Z,3.17
2019-01-02T18:32:10.230Z,2.57
2019-01-02T18:34:41.739Z,3.27
2019-01-02T18:37:13.469Z,3.83
2019-01-02T18:39:45.074Z,2.83
2019-01-02T18:42:16.952Z,2.70
2019-01-02T18:44:48.573Z,2.83
2019-01-02T18:47:20.938Z,3.53
2019-01-02T18:49:52.702Z,3.10
2019-01-02T18:52:24.512Z,2.83
2019-01-02T18:54:55.940Z,2.83
2019-01-02T18:57:27.854Z,3.50
2019-01-02T19:00:05.703Z,4.03
2019-01-02T19:02:32.679Z,3.07
2019-01-02T19:05:04.928Z,3.40
2019-01-02T19:07:36.701Z,3.00
2019-01-02T19:10:08.831Z,3.40
2019-01-02T19:12:40.625Z,4.03
2019-01-02T19:15:12.185Z,3.93
2019-01-02T19:17:44.162Z,3.77
2019-01-02T19:20:15.769Z,3.07
2019-01-02T19:22:47.223Z,3.97
2019-01-02T19:25:18.867Z,3.70
2019-01-02T19:27:50.897Z,3.80
2019-01-02T19:30:22.449Z,3.90
2019-01-02T19:32:53.963Z,3.97
2019-01-02T19:35:25.414Z,3.63
2019-01-02T19:37:57.117Z,3.40
2019-01-02T19:40:28.716Z,3.57
2019-01-02T19:43:00.286Z,3.73
2019-01-02T19:45:32.108Z,5.60
2019-01-02T19:48:03.800Z,3.60
2019-01-02T19:50:35.226Z,4.00
2019-01-02T19:53:06.742Z,3.87
2019-01-02T19:55:38.221Z,4.23
2019-01-02T19:58:09.985Z,3.73
2019-01-02T20:00:42.013Z,3.73
2019-01-02T20:03:14.396Z,3.87
2019-01-02T20:05:46.408Z,3.80
2019-01-02T20:08:18.029Z,3.33
2019-01-02T20:10:49.675Z,3.70
2019-01-02T20:13:21.523Z,3.10
2019-01-02T20:15:52.917Z,3.50
2019-01-02T20:18:24.595Z,3.27
2019-01-02T20:20:56.186Z,3.80
2019-01-02T20:23:28.235Z,3.80
2019-01-02T20:26:00.267Z,3.20
2019-01-02T20:28:32.634Z,3.60
2019-01-02T20:31:04.439Z,3.10
2019-01-02T20:33:37.151Z,3.43
2019-01-02T20:36:08.626Z,3.47
2019-01-02T20:38:41.804Z,3.10
2019-01-02T20:41:13.420Z,3.03
2019-01-02T20:43:45.438Z,2.90
2019-01-02T20:46:16.967Z,3.27
2019-01-02T20:48:48.661Z,3.60
2019-01-02T20:51:21.036Z,3.70
2019-01-02T20:53:52.948Z,3.40
2019-01-02T20:56:24.637Z,3.20
2019-01-02T20:58:56.315Z,3.30
2019-01-02T21:01:27.723Z,2.97
2019-01-02T21:03:59.471Z,2.47
2019-01-02T21:06:31.165Z,3.50
2019-01-02T21:09:03.061Z,3.30
2019-01-02T21:11:36.589Z,3.10
2019-01-02T21:14:08.493Z,3.10
2019-01-02T21:16:39.713Z,3.27
2019-01-02T21:19:10.937Z,3.13
2019-01-02T21:21:42.586Z,3.07
2019-01-02T21:24:14.211Z,2.90
2019-01-02T21:26:45.692Z,3.67
2019-01-02T21:29:17.158Z,3.20
2019-01-02T21:31:48.310Z,3.07
2019-01-02T21:34:19.774Z,3.17
2019-01-02T21:36:50.916Z,3.50
2019-01-02T21:39:22.302Z,3.53
2019-01-02T21:41:54.033Z,2.90
2019-01-02T21:44:26.234Z,3.60
2019-01-02T21:46:58.210Z,3.53
2019-01-02T21:49:30.258Z,3.23
2019-01-02T21:52:01.709Z,2.90
2019-01-02T21:54:33.566Z,3.30
2019-01-02T21:57:05.145Z,3.27
2019-01-02T21:59:37.224Z,3.50
2019-01-02T22:02:09.251Z,3.60
2019-01-02T22:04:41.396Z,3.10
2019-01-02T22:07:13.236Z,3.03
2019-01-02T22:09:45.118Z,4.40
2019-01-02T22:12:16.996Z,3.73
2019-01-02T22:14:49.620Z,5.15
2019-01-02T22:17:21.567Z,3.70
2019-01-02T22:19:53.678Z,2.93
2019-01-02T22:22:25.829Z,3.57
2019-01-02T22:24:58.246Z,3.40
2019-01-02T22:27:29.948Z,3.57
2019-01-02T22:30:02.534Z,3.80
2019-01-02T22:32:34.378Z,3.90
2019-01-02T22:35:07.045Z,3.80
2019-01-02T22:37:38.518Z,3.60
2019-01-02T22:40:10.664Z,4.37
2019-01-02T22:42:42.726Z,3.33
2019-01-02T22:45:14.788Z,3.57
2019-01-02T22:47:46.631Z,3.30
2019-01-02T22:50:19.053Z,3.53
2019-01-02T22:52:51.094Z,3.40
2019-01-02T22:55:22.922Z,3.00
2019-01-02T22:57:54.918Z,3.17
2019-01-02T23:00:49.124Z,3.53
2019-01-02T23:03:54.058Z,3.20
2019-01-02T23:06:55.440Z,3.13
2019-01-02T23:09:46.778Z,3.00
2019-01-02T23:12:42.398Z,3.43
2019-01-02T23:15:43.901Z,3.60
2019-01-02T23:18:35.396Z,4.03
2019-01-02T23:21:27.923Z,3.90
2019-01-02T23:24:29.704Z,4.70
2019-01-02T23:27:27.232Z,3.63
2019-01-02T23:30:18.356Z,3.50
2019-01-02T23:33:09.088Z,3.53
2019-01-02T23:36:03.296Z,3.70
2019-01-02T23:42:05.264Z,3.87
2019-01-02T23:48:00.379Z,3.40
2019-01-02T23:51:15.868Z,3.67
2019-01-02T23:54:09.137Z,4.10
2019-01-02T23:57:10.577Z,4.23
